sensor_id;sensor_type;location;lat;lon;timestamp;pressure;altitude;pressure_sealevel;temperature;humidity
26859;BME280;14429;48.346;16.338;2022-10-13T00:01:55;100450.59;;;20.58;50.44
26859;BME280;14429;48.346;16.338;2022-10-13T00:04:21;100453.03;;;20.61;50.52
26859;BME280;14429;48.346;16.338;2022-10-13T00:06:46;100455.56;;;20.62;50.35
26859;BME280;14429;48.346;16.338;2022-10-13T00:09:12;100456.75;;;20.60;50.35
26859;BME280;14429;48.346;16.338;2022-10-13T00:11:38;100453.03;;;20.61;50.50
26859;BME280;14429;48.346;16.338;2022-10-13T00:14:04;100458.75;;;20.58;50.25
26859;BME280;14429;48.346;16.338;2022-10-13T00:16:30;100447.22;;;20.56;50.38
26859;BME280;14429;48.346;16.338;2022-10-13T00:18:57;100458.75;;;20.58;50.61
26859;BME280;14429;48.346;16.338;2022-10-13T00:21:25;100454.47;;;20.55;50.58
26859;BME280;14429;48.346;16.338;2022-10-13T00:23:52;100450.22;;;20.53;50.41
26859;BME280;14429;48.346;16.338;2022-10-13T00:26:18;100447.63;;;20.52;50.47
26859;BME280;14429;48.346;16.338;2022-10-13T00:28:46;100449.34;;;20.53;50.66
26859;BME280;14429;48.346;16.338;2022-10-13T00:31:16;100443.09;;;20.52;50.61
26859;BME280;14429;48.346;16.338;2022-10-13T00:33:41;100441.06;;;20.54;50.28
26859;BME280;14429;48.346;16.338;2022-10-13T00:36:07;100449.03;;;20.55;50.30
26859;BME280;14429;48.346;16.338;2022-10-13T00:38:32;100443.34;;;20.49;50.48
26859;BME280;14429;48.346;16.338;2022-10-13T00:40:58;100444.06;;;20.51;50.55
26859;BME280;14429;48.346;16.338;2022-10-13T00:43:25;100439.78;;;20.49;50.38
26859;BME280;14429;48.346;16.338;2022-10-13T00:45:53;100433.94;;;20.44;50.64
26859;BME280;14429;48.346;16.338;2022-10-13T00:48:21;100437.38;;;20.46;50.60
26859;BME280;14429;48.346;16.338;2022-10-13T00:50:48;100437.94;;;20.49;50.35
26859;BME280;14429;48.346;16.338;2022-10-13T00:53:15;100437.66;;;20.52;50.28
26859;BME280;14429;48.346;16.338;2022-10-13T00:55:43;100434.19;;;20.50;50.49
26859;BME280;14429;48.346;16.338;2022-10-13T00:58:11;100431.09;;;20.45;50.39
26859;BME280;14429;48.346;16.338;2022-10-13T01:00:38;100434.09;;;20.42;50.51
26859;BME280;14429;48.346;16.338;2022-10-13T01:03:04;100427.25;;;20.38;50.75
26859;BME280;14429;48.346;16.338;2022-10-13T01:05:30;100428.69;;;20.42;50.51
26859;BME280;14429;48.346;16.338;2022-10-13T01:07:56;100429.69;;;20.41;50.72
26859;BME280;14429;48.346;16.338;2022-10-13T01:10:31;100424.56;;;20.38;50.74
26859;BME280;14429;48.346;16.338;2022-10-13T01:13:02;100431.69;;;20.39;50.42
26859;BME280;14429;48.346;16.338;2022-10-13T01:15:39;100425.97;;;20.42;50.45
26859;BME280;14429;48.346;16.338;2022-10-13T01:18:15;100426.25;;;20.39;50.55
26859;BME280;14429;48.346;16.338;2022-10-13T01:20:51;100426.13;;;20.41;50.61
26859;BME280;14429;48.346;16.338;2022-10-13T01:26:36;100427.97;;;20.40;50.32
26859;BME280;14429;48.346;16.338;2022-10-13T01:32:08;100415.69;;;20.36;50.55
26859;BME280;14429;48.346;16.338;2022-10-13T01:34:42;100418.03;;;20.31;50.73
26859;BME280;14429;48.346;16.338;2022-10-13T01:37:13;100412.88;;;20.28;50.65
26859;BME280;14429;48.346;16.338;2022-10-13T01:39:42;100408.19;;;20.30;50.85
26859;BME280;14429;48.346;16.338;2022-10-13T01:42:13;100415.47;;;20.30;50.79
26859;BME280;14429;48.346;16.338;2022-10-13T01:44:42;100409.19;;;20.29;50.68
26859;BME280;14429;48.346;16.338;2022-10-13T01:47:14;100405.78;;;20.27;50.76
26859;BME280;14429;48.346;16.338;2022-10-13T01:49:41;100407.91;;;20.33;50.53
26859;BME280;14429;48.346;16.338;2022-10-13T01:52:11;100409.59;;;20.34;50.51
26859;BME280;14429;48.346;16.338;2022-10-13T01:54:39;100409.88;;;20.31;50.55
26859;BME280;14429;48.346;16.338;2022-10-13T01:57:26;100404.19;;;20.34;50.66
26859;BME280;14429;48.346;16.338;2022-10-13T01:59:53;100400.06;;;20.30;50.57
26859;BME280;14429;48.346;16.338;2022-10-13T02:02:26;100393.63;;;20.31;50.51
26859;BME280;14429;48.346;16.338;2022-10-13T02:04:55;100394.63;;;20.30;50.69
26859;BME280;14429;48.346;16.338;2022-10-13T02:07:27;100395.66;;;20.29;50.62
26859;BME280;14429;48.346;16.338;2022-10-13T02:09:58;100399.22;;;20.30;50.39
26859;BME280;14429;48.346;16.338;2022-10-13T02:12:29;100396.34;;;20.31;50.55
26859;BME280;14429;48.346;16.338;2022-10-13T02:14:57;100390.38;;;20.28;50.54
26859;BME280;14429;48.346;16.338;2022-10-13T02:17:25;100389.81;;;20.25;50.59
26859;BME280;14429;48.346;16.338;2022-10-13T02:19:52;100390.09;;;20.22;50.82
26859;BME280;14429;48.346;16.338;2022-10-13T02:22:21;100399.50;;;20.27;50.61
26859;BME280;14429;48.346;16.338;2022-10-13T02:24:48;100396.63;;;20.28;50.52
26859;BME280;14429;48.346;16.338;2022-10-13T02:27:14;100397.81;;;20.26;50.58
26859;BME280;14429;48.346;16.338;2022-10-13T02:29:51;100403.50;;;20.23;50.54
26859;BME280;14429;48.346;16.338;2022-10-13T02:32:17;100390.53;;;20.26;50.71
26859;BME280;14429;48.346;16.338;2022-10-13T02:34:43;100397.25;;;20.23;50.65
26859;BME280;14429;48.346;16.338;2022-10-13T02:37:09;100391.81;;;20.23;50.73
26859;BME280;14429;48.346;16.338;2022-10-13T02:39:34;100398.38;;;20.20;50.73
26859;BME280;14429;48.346;16.338;2022-10-13T02:42:00;100395.50;;;20.22;50.64
26859;BME280;14429;48.346;16.338;2022-10-13T02:44:26;100388.41;;;20.21;50.63
26859;BME280;14429;48.346;16.338;2022-10-13T02:46:52;100386.69;;;20.20;50.76
26859;BME280;14429;48.346;16.338;2022-10-13T02:49:17;100381.28;;;20.20;50.68
26859;BME280;14429;48.346;16.338;2022-10-13T02:51:44;100390.41;;;20.19;50.84
26859;BME280;14429;48.346;16.338;2022-10-13T02:54:10;100383.25;;;20.18;50.81
26859;BME280;14429;48.346;16.338;2022-10-13T02:56:35;100382.28;;;20.19;50.76
26859;BME280;14429;48.346;16.338;2022-10-13T02:59:00;100385.00;;;20.19;50.71
26859;BME280;14429;48.346;16.338;2022-10-13T03:01:26;100381.56;;;20.17;50.53
26859;BME280;14429;48.346;16.338;2022-10-13T03:03:51;100379.88;;;20.16;50.68
26859;BME280;14429;48.346;16.338;2022-10-13T03:06:17;100388.69;;;20.18;50.79
26859;BME280;14429;48.346;16.338;2022-10-13T03:08:44;100389.69;;;20.17;50.71
26859;BME280;14429;48.346;16.338;2022-10-13T03:11:09;100392.56;;;20.15;50.74
26859;BME280;14429;48.346;16.338;2022-10-13T03:13:35;100387.59;;;20.11;50.87
26859;BME280;14429;48.346;16.338;2022-10-13T03:16:01;100388.28;;;20.13;50.87
26859;BME280;14429;48.346;16.338;2022-10-13T03:18:26;100393.53;;;20.14;50.83
26859;BME280;14429;48.346;16.338;2022-10-13T03:20:55;100399.13;;;20.13;50.93
26859;BME280;14429;48.346;16.338;2022-10-13T03:23:21;100386.44;;;20.13;50.68
26859;BME280;14429;48.346;16.338;2022-10-13T03:25:48;100396.41;;;20.13;50.83
26859;BME280;14429;48.346;16.338;2022-10-13T03:28:13;100396.97;;;20.07;50.77
26859;BME280;14429;48.346;16.338;2022-10-13T03:30:38;100387.88;;;20.08;50.87
26859;BME280;14429;48.346;16.338;2022-10-13T03:33:04;100391.28;;;20.10;50.76
26859;BME280;14429;48.346;16.338;2022-10-13T03:35:29;100392.28;;;20.09;50.90
26859;BME280;14429;48.346;16.338;2022-10-13T03:37:55;100390.72;;;20.06;50.96
26859;BME280;14429;48.346;16.338;2022-10-13T03:40:20;100385.00;;;20.09;50.75
26859;BME280;14429;48.346;16.338;2022-10-13T03:42:47;100386.16;;;20.07;50.78
26859;BME280;14429;48.346;16.338;2022-10-13T03:45:13;100388.16;;;20.05;51.03
26859;BME280;14429;48.346;16.338;2022-10-13T03:47:38;100389.47;;;20.01;50.78
26859;BME280;14429;48.346;16.338;2022-10-13T03:50:04;100395.56;;;20.03;50.91
26859;BME280;14429;48.346;16.338;2022-10-13T03:52:30;100390.44;;;20.09;50.75
26859;BME280;14429;48.346;16.338;2022-10-13T03:54:56;100390.16;;;20.03;51.05
26859;BME280;14429;48.346;16.338;2022-10-13T03:57:22;100390.59;;;19.98;51.06
26859;BME280;14429;48.346;16.338;2022-10-13T03:59:49;100394.16;;;19.99;51.10
26859;BME280;14429;48.346;16.338;2022-10-13T04:02:14;100392.19;;;20.01;50.90
26859;BME280;14429;48.346;16.338;2022-10-13T04:04:40;100394.16;;;19.99;51.02
26859;BME280;14429;48.346;16.338;2022-10-13T04:07:06;100387.91;;;19.98;50.97
26859;BME280;14429;48.346;16.338;2022-10-13T04:09:32;100397.72;;;19.99;50.94
26859;BME280;14429;48.346;16.338;2022-10-13T04:11:58;100390.59;;;19.98;50.91
26859;BME280;14429;48.346;16.338;2022-10-13T04:14:23;100394.47;;;19.96;51.01
26859;BME280;14429;48.346;16.338;2022-10-13T04:16:50;100387.34;;;19.95;51.03
26859;BME280;14429;48.346;16.338;2022-10-13T04:19:16;100382.00;;;19.30;47.38
26859;BME280;14429;48.346;16.338;2022-10-13T04:21:41;100390.53;;;19.81;51.47
26859;BME280;14429;48.346;16.338;2022-10-13T04:24:10;100385.34;;;19.88;51.10
26859;BME280;14429;48.346;16.338;2022-10-13T04:26:36;100390.09;;;19.86;50.99
26859;BME280;14429;48.346;16.338;2022-10-13T04:29:03;100399.63;;;19.62;48.91
26859;BME280;14429;48.346;16.338;2022-10-13T04:31:29;100399.91;;;19.87;51.13
26859;BME280;14429;48.346;16.338;2022-10-13T04:33:57;100394.34;;;19.88;51.06
26859;BME280;14429;48.346;16.338;2022-10-13T04:36:23;100400.47;;;19.90;51.09
26859;BME280;14429;48.346;16.338;2022-10-13T04:38:49;100392.06;;;19.93;50.98
26859;BME280;14429;48.346;16.338;2022-10-13T04:41:17;100395.63;;;19.94;50.87
26859;BME280;14429;48.346;16.338;2022-10-13T04:43:43;100395.75;;;19.92;50.89
26859;BME280;14429;48.346;16.338;2022-10-13T04:46:12;100392.06;;;19.93;50.86
26859;BME280;14429;48.346;16.338;2022-10-13T04:48:38;100396.06;;;19.89;50.97
26859;BME280;14429;48.346;16.338;2022-10-13T04:51:07;100396.75;;;19.91;50.86
26859;BME280;14429;48.346;16.338;2022-10-13T04:53:33;100398.50;;;19.83;50.66
26859;BME280;14429;48.346;16.338;2022-10-13T04:56:00;100387.94;;;19.89;51.02
26859;BME280;14429;48.346;16.338;2022-10-13T04:58:25;100398.78;;;19.89;50.93
26859;BME280;14429;48.346;16.338;2022-10-13T05:00:51;100401.03;;;19.94;50.86
26859;BME280;14429;48.346;16.338;2022-10-13T05:03:16;100393.34;;;19.89;50.98
26859;BME280;14429;48.346;16.338;2022-10-13T05:05:42;100387.63;;;19.92;50.78
26859;BME280;14429;48.346;16.338;2022-10-13T05:08:09;100397.03;;;19.88;50.89
26859;BME280;14429;48.346;16.338;2022-10-13T05:10:34;100397.75;;;19.90;50.83
26859;BME280;14429;48.346;16.338;2022-10-13T05:13:00;100398.44;;;19.92;50.97
26859;BME280;14429;48.346;16.338;2022-10-13T05:15:25;100401.59;;;19.88;50.98
26859;BME280;14429;48.346;16.338;2022-10-13T05:17:51;100398.78;;;19.89;50.89
26859;BME280;14429;48.346;16.338;2022-10-13T05:20:16;100401.94;;;19.75;51.16
26859;BME280;14429;48.346;16.338;2022-10-13T05:22:42;100399.91;;;19.87;50.90
26859;BME280;14429;48.346;16.338;2022-10-13T05:25:09;100399.34;;;19.83;50.89
26859;BME280;14429;48.346;16.338;2022-10-13T05:27:34;100395.63;;;19.84;50.96
26859;BME280;14429;48.346;16.338;2022-10-13T05:29:59;100392.22;;;19.82;50.89
26859;BME280;14429;48.346;16.338;2022-10-13T05:32:25;100401.31;;;19.91;50.76
26859;BME280;14429;48.346;16.338;2022-10-13T05:34:50;100399.06;;;19.86;50.90
26859;BME280;14429;48.346;16.338;2022-10-13T05:37:16;100401.19;;;19.83;50.89
26859;BME280;14429;48.346;16.338;2022-10-13T05:39:41;100404.19;;;19.80;50.99
26859;BME280;14429;48.346;16.338;2022-10-13T05:42:08;100399.34;;;19.83;50.79
26859;BME280;14429;48.346;16.338;2022-10-13T05:44:34;100410.16;;;19.83;50.78
26859;BME280;14429;48.346;16.338;2022-10-13T05:46:59;100410.03;;;19.85;50.76
26859;BME280;14429;48.346;16.338;2022-10-13T05:49:25;100407.88;;;19.88;50.74
26859;BME280;14429;48.346;16.338;2022-10-13T05:51:52;100407.63;;;19.82;50.83
26859;BME280;14429;48.346;16.338;2022-10-13T05:54:22;100406.78;;;19.81;50.92
26859;BME280;14429;48.346;16.338;2022-10-13T05:56:51;100414.75;;;19.83;50.75
26859;BME280;14429;48.346;16.338;2022-10-13T05:59:21;100412.88;;;19.83;50.84
26859;BME280;14429;48.346;16.338;2022-10-13T06:01:48;100412.19;;;19.81;50.84
26859;BME280;14429;48.346;16.338;2022-10-13T06:04:18;100408.75;;;19.79;50.85
26859;BME280;14429;48.346;16.338;2022-10-13T06:06:45;100417.59;;;19.81;50.90
26859;BME280;14429;48.346;16.338;2022-10-13T06:09:11;100423.88;;;19.82;50.87
26859;BME280;14429;48.346;16.338;2022-10-13T06:11:37;100413.88;;;19.82;50.85
26859;BME280;14429;48.346;16.338;2022-10-13T06:14:03;100419.31;;;19.82;50.86
26859;BME280;14429;48.346;16.338;2022-10-13T06:16:29;100419.59;;;19.79;50.78
26859;BME280;14429;48.346;16.338;2022-10-13T06:18:55;100422.28;;;19.79;50.97
26859;BME280;14429;48.346;16.338;2022-10-13T06:21:20;100421.59;;;19.77;50.78
26859;BME280;14429;48.346;16.338;2022-10-13T06:23:46;100427.53;;;19.81;50.77
26859;BME280;14429;48.346;16.338;2022-10-13T06:26:11;100419.59;;;19.79;50.86
26859;BME280;14429;48.346;16.338;2022-10-13T06:28:37;100423.75;;;19.74;50.89
26859;BME280;14429;48.346;16.338;2022-10-13T06:31:04;100416.47;;;19.74;50.97
26859;BME280;14429;48.346;16.338;2022-10-13T06:33:32;100418.16;;;19.75;50.78
26859;BME280;14429;48.346;16.338;2022-10-13T06:36:00;100414.75;;;19.73;50.90
26859;BME280;14429;48.346;16.338;2022-10-13T06:38:25;100419.19;;;19.74;51.00
26859;BME280;14429;48.346;16.338;2022-10-13T06:40:51;100418.16;;;19.75;50.72
26859;BME280;14429;48.346;16.338;2022-10-13T06:43:16;100416.75;;;19.72;50.96
26859;BME280;14429;48.346;16.338;2022-10-13T06:45:41;100411.63;;;19.78;50.85
26859;BME280;14429;48.346;16.338;2022-10-13T06:48:07;100415.19;;;19.78;50.88
26859;BME280;14429;48.346;16.338;2022-10-13T06:50:34;100419.88;;;19.76;50.67
26859;BME280;14429;48.346;16.338;2022-10-13T06:52:59;100411.06;;;19.74;50.80
26859;BME280;14429;48.346;16.338;2022-10-13T06:55:24;100413.75;;;19.74;50.89
26859;BME280;14429;48.346;16.338;2022-10-13T06:57:50;100416.44;;;19.65;50.84
26859;BME280;14429;48.346;16.338;2022-10-13T07:00:16;100411.19;;;19.73;50.62
26859;BME280;14429;48.346;16.338;2022-10-13T07:02:41;100412.59;;;19.68;50.52
26859;BME280;14429;48.346;16.338;2022-10-13T07:05:07;100413.72;;;19.65;50.78
26859;BME280;14429;48.346;16.338;2022-10-13T07:07:34;100416.88;;;19.61;50.76
26859;BME280;14429;48.346;16.338;2022-10-13T07:09:59;100419.41;;;19.62;50.53
26859;BME280;14429;48.346;16.338;2022-10-13T07:12:25;100416.16;;;19.68;49.88
26859;BME280;14429;48.346;16.338;2022-10-13T07:14:50;100415.88;;;19.62;49.42
26859;BME280;14429;48.346;16.338;2022-10-13T07:17:16;100411.00;;;19.65;49.64
26859;BME280;14429;48.346;16.338;2022-10-13T07:19:41;100409.72;;;19.69;49.79
26859;BME280;14429;48.346;16.338;2022-10-13T07:22:06;100406.44;;;19.66;49.79
26859;BME280;14429;48.346;16.338;2022-10-13T07:24:33;100412.19;;;19.63;49.87
26859;BME280;14429;48.346;16.338;2022-10-13T07:26:59;100411.00;;;19.65;49.75
26859;BME280;14429;48.346;16.338;2022-10-13T07:29:24;100415.31;;;19.68;49.76
26859;BME280;14429;48.346;16.338;2022-10-13T07:31:49;100416.72;;;19.62;49.97
26859;BME280;14429;48.346;16.338;2022-10-13T07:34:15;100412.47;;;19.60;50.02
26859;BME280;14429;48.346;16.338;2022-10-13T07:36:40;100409.03;;;19.58;50.07
26859;BME280;14429;48.346;16.338;2022-10-13T07:39:06;100404.34;;;19.60;50.00
26859;BME280;14429;48.346;16.338;2022-10-13T07:41:33;100408.59;;;19.62;49.95
26859;BME280;14429;48.346;16.338;2022-10-13T07:43:58;100417.31;;;19.56;50.04
26859;BME280;14429;48.346;16.338;2022-10-13T07:46:24;100414.44;;;19.58;50.07
26859;BME280;14429;48.346;16.338;2022-10-13T07:48:50;100418.44;;;19.63;50.04
26859;BME280;14429;48.346;16.338;2022-10-13T07:51:16;100407.91;;;19.32;48.40
26859;BME280;14429;48.346;16.338;2022-10-13T07:53:42;100403.34;;;19.42;50.52
26859;BME280;14429;48.346;16.338;2022-10-13T07:56:10;100412.19;;;19.44;50.39
26859;BME280;14429;48.346;16.338;2022-10-13T07:58:40;100408.47;;;19.26;50.59
26859;BME280;14429;48.346;16.338;2022-10-13T08:01:06;100407.31;;;19.47;50.45
26859;BME280;14429;48.346;16.338;2022-10-13T08:03:31;100417.28;;;19.47;50.53
26859;BME280;14429;48.346;16.338;2022-10-13T08:05:57;100411.59;;;19.50;50.41
26859;BME280;14429;48.346;16.338;2022-10-13T08:08:23;100416.19;;;19.59;50.22
26859;BME280;14429;48.346;16.338;2022-10-13T08:10:49;100412.75;;;19.57;50.19
26859;BME280;14429;48.346;16.338;2022-10-13T08:13:14;100408.78;;;19.51;50.35
26859;BME280;14429;48.346;16.338;2022-10-13T08:15:42;100409.63;;;19.52;50.30
26859;BME280;14429;48.346;16.338;2022-10-13T08:18:08;100401.09;;;19.38;50.26
26859;BME280;14429;48.346;16.338;2022-10-13T08:20:33;100400.50;;;19.53;50.37
26859;BME280;14429;48.346;16.338;2022-10-13T08:22:59;100406.19;;;19.50;50.39
26859;BME280;14429;48.346;16.338;2022-10-13T08:25:24;100402.22;;;19.44;50.51
26859;BME280;14429;48.346;16.338;2022-10-13T08:27:50;100398.47;;;19.55;50.36
26859;BME280;14429;48.346;16.338;2022-10-13T08:30:15;100397.34;;;19.57;50.32
26859;BME280;14429;48.346;16.338;2022-10-13T08:32:42;100399.38;;;19.55;50.16
26859;BME280;14429;48.346;16.338;2022-10-13T08:35:09;100400.50;;;19.53;50.38
26859;BME280;14429;48.346;16.338;2022-10-13T08:37:34;100405.91;;;19.53;50.35
26859;BME280;14429;48.346;16.338;2022-10-13T08:39:59;100404.06;;;19.53;50.29
26859;BME280;14429;48.346;16.338;2022-10-13T08:42:25;100413.03;;;19.54;50.28
26859;BME280;14429;48.346;16.338;2022-10-13T08:44:53;100407.34;;;19.57;50.14
26859;BME280;14429;48.346;16.338;2022-10-13T08:47:28;100406.59;;;19.55;50.30
26859;BME280;14429;48.346;16.338;2022-10-13T08:50:02;100413.72;;;18.52;48.27
26859;BME280;14429;48.346;16.338;2022-10-13T08:52:41;100415.41;;;18.91;51.41
26859;BME280;14429;48.346;16.338;2022-10-13T08:55:15;100415.69;;;18.50;51.67
26859;BME280;14429;48.346;16.338;2022-10-13T08:57:41;100404.38;;;18.74;52.02
26859;BME280;14429;48.346;16.338;2022-10-13T09:00:11;100407.88;;;19.14;51.43
26859;BME280;14429;48.346;16.338;2022-10-13T09:02:37;100402.81;;;19.29;51.01
26859;BME280;14429;48.346;16.338;2022-10-13T09:05:08;100393.25;;;19.25;51.02
26859;BME280;14429;48.346;16.338;2022-10-13T09:07:37;100400.09;;;19.29;51.01
26859;BME280;14429;48.346;16.338;2022-10-13T09:10:04;100403.38;;;19.33;50.82
26859;BME280;14429;48.346;16.338;2022-10-13T09:12:30;100404.06;;;19.44;50.71
26859;BME280;14429;48.346;16.338;2022-10-13T09:14:57;100396.66;;;19.46;50.59
26859;BME280;14429;48.346;16.338;2022-10-13T09:17:24;100405.34;;;19.49;50.49
26859;BME280;14429;48.346;16.338;2022-10-13T09:19:57;100397.06;;;19.51;50.50
26859;BME280;14429;48.346;16.338;2022-10-13T09:22:25;100406.47;;;19.47;50.46
26859;BME280;14429;48.346;16.338;2022-10-13T09:25:08;100389.66;;;19.43;50.51
26859;BME280;14429;48.346;16.338;2022-10-13T09:27:41;100387.41;;;19.20;50.16
26859;BME280;14429;48.346;16.338;2022-10-13T09:30:32;100389.34;;;18.81;46.74
26859;BME280;14429;48.346;16.338;2022-10-13T09:33:06;100392.84;;;18.72;48.23
26859;BME280;14429;48.346;16.338;2022-10-13T09:35:40;100389.47;;;17.82;50.41
26859;BME280;14429;48.346;16.338;2022-10-13T09:38:10;100390.66;;;17.89;50.03
26859;BME280;14429;48.346;16.338;2022-10-13T09:40:37;100385.50;;;17.86;50.46
26859;BME280;14429;48.346;16.338;2022-10-13T09:45:48;100387.75;;;17.81;50.67
26859;BME280;14429;48.346;16.338;2022-10-13T09:48:18;100383.75;;;17.55;51.06
26859;BME280;14429;48.346;16.338;2022-10-13T09:50:47;100387.25;;;17.47;52.52
26859;BME280;14429;48.346;16.338;2022-10-13T09:53:19;100379.19;;;17.16;52.67
26859;BME280;14429;48.346;16.338;2022-10-13T09:55:47;100377.44;;;17.66;54.94
26859;BME280;14429;48.346;16.338;2022-10-13T09:58:15;100378.47;;;18.14;54.48
26859;BME280;14429;48.346;16.338;2022-10-13T10:00:43;100383.78;;;18.35;53.64
26859;BME280;14429;48.346;16.338;2022-10-13T10:03:13;100381.66;;;18.77;52.67
26859;BME280;14429;48.346;16.338;2022-10-13T10:05:43;100387.13;;;19.05;51.95
26859;BME280;14429;48.346;16.338;2022-10-13T10:08:17;100387.13;;;19.05;51.95
26859;BME280;14429;48.346;16.338;2022-10-13T10:10:44;100379.16;;;19.13;51.71
26859;BME280;14429;48.346;16.338;2022-10-13T10:13:11;100377.16;;;19.24;51.33
26859;BME280;14429;48.346;16.338;2022-10-13T10:15:47;100378.44;;;19.29;51.21
26859;BME280;14429;48.346;16.338;2022-10-13T10:18:17;100380.44;;;19.27;51.16
26859;BME280;14429;48.346;16.338;2022-10-13T10:20:57;100377.94;;;18.78;48.57
26859;BME280;14429;48.346;16.338;2022-10-13T10:23:35;100375.84;;;18.42;51.16
26859;BME280;14429;48.346;16.338;2022-10-13T10:26:08;100377.84;;;18.98;51.71
26859;BME280;14429;48.346;16.338;2022-10-13T10:28:45;100374.31;;;19.07;51.79
26859;BME280;14429;48.346;16.338;2022-10-13T10:31:22;100366.03;;;19.17;51.53
26859;BME280;14429;48.346;16.338;2022-10-13T10:34:00;100376.03;;;19.26;51.22
26859;BME280;14429;48.346;16.338;2022-10-13T10:36:35;100378.59;;;19.37;51.11
26859;BME280;14429;48.346;16.338;2022-10-13T10:39:07;100363.06;;;19.20;49.74
26859;BME280;14429;48.346;16.338;2022-10-13T10:41:44;100366.56;;;18.74;49.96
26859;BME280;14429;48.346;16.338;2022-10-13T10:44:14;100366.25;;;18.59;49.54
26859;BME280;14429;48.346;16.338;2022-10-13T10:46:44;100370.91;;;18.95;52.07
26859;BME280;14429;48.346;16.338;2022-10-13T10:49:14;100366.50;;;19.22;51.46
26859;BME280;14429;48.346;16.338;2022-10-13T10:51:41;100362.63;;;19.34;51.11
26859;BME280;14429;48.346;16.338;2022-10-13T10:54:18;100362.06;;;19.40;50.90
26859;BME280;14429;48.346;16.338;2022-10-13T10:56:48;100353.19;;;19.47;50.63
26859;BME280;14429;48.346;16.338;2022-10-13T10:59:26;100352.06;;;19.50;50.67
26859;BME280;14429;48.346;16.338;2022-10-13T11:02:10;100352.97;;;19.22;49.10
26859;BME280;14429;48.346;16.338;2022-10-13T11:04:40;100359.06;;;19.43;50.65
26859;BME280;14429;48.346;16.338;2022-10-13T11:07:10;100346.94;;;19.47;50.65
26859;BME280;14429;48.346;16.338;2022-10-13T11:10:02;100351.78;;;19.53;50.50
26859;BME280;14429;48.346;16.338;2022-10-13T11:15:29;100334.97;;;19.59;50.45
26859;BME280;14429;48.346;16.338;2022-10-13T11:21:03;100333.28;;;19.48;50.23
26859;BME280;14429;48.346;16.338;2022-10-13T11:23:33;100332.72;;;19.45;49.77
26859;BME280;14429;48.346;16.338;2022-10-13T11:26:26;100337.28;;;19.44;50.51
26859;BME280;14429;48.346;16.338;2022-10-13T11:28:52;100324.84;;;19.61;50.27
26859;BME280;14429;48.346;16.338;2022-10-13T11:31:30;100311.03;;;19.64;50.19
26859;BME280;14429;48.346;16.338;2022-10-13T11:33:58;100308.72;;;19.69;50.03
26859;BME280;14429;48.346;16.338;2022-10-13T11:36:35;100306.31;;;19.66;50.11
26859;BME280;14429;48.346;16.338;2022-10-13T11:39:14;100304.47;;;19.66;50.16
26859;BME280;14429;48.346;16.338;2022-10-13T11:41:53;100305.31;;;19.67;50.14
26859;BME280;14429;48.346;16.338;2022-10-13T11:44:29;100300.59;;;19.69;50.25
26859;BME280;14429;48.346;16.338;2022-10-13T11:47:01;100297.34;;;19.65;50.23
26859;BME280;14429;48.346;16.338;2022-10-13T11:49:56;100290.22;;;19.64;50.37
26859;BME280;14429;48.346;16.338;2022-10-13T11:55:29;100287.47;;;19.10;50.82
26859;BME280;14429;48.346;16.338;2022-10-13T11:58:08;100275.44;;;19.49;50.50
26859;BME280;14429;48.346;16.338;2022-10-13T12:00:34;100271.75;;;19.50;50.30
26859;BME280;14429;48.346;16.338;2022-10-13T12:02:59;100272.91;;;19.48;49.95
26859;BME280;14429;48.346;16.338;2022-10-13T12:05:26;100268.13;;;19.14;49.40
26859;BME280;14429;48.346;16.338;2022-10-13T12:07:53;100262.16;;;19.11;49.69
26859;BME280;14429;48.346;16.338;2022-10-13T12:10:23;100250.47;;;19.10;51.45
26859;BME280;14429;48.346;16.338;2022-10-13T12:12:49;100253.03;;;19.12;51.61
26859;BME280;14429;48.346;16.338;2022-10-13T12:15:31;100248.72;;;19.28;51.27
26859;BME280;14429;48.346;16.338;2022-10-13T12:17:57;100235.88;;;19.39;50.96
26859;BME280;14429;48.346;16.338;2022-10-13T12:20:24;100244.09;;;19.11;51.02
26859;BME280;14429;48.346;16.338;2022-10-13T12:22:51;100252.31;;;18.72;52.26
26859;BME280;14429;48.346;16.338;2022-10-13T12:25:18;100251.06;;;18.67;52.70
26859;BME280;14429;48.346;16.338;2022-10-13T12:27:45;100250.78;;;18.98;52.24
26859;BME280;14429;48.346;16.338;2022-10-13T12:30:20;100250.34;;;19.12;51.71
26859;BME280;14429;48.346;16.338;2022-10-13T12:32:50;100246.72;;;19.39;51.14
26859;BME280;14429;48.346;16.338;2022-10-13T12:35:17;100241.16;;;19.41;51.14
26859;BME280;14429;48.346;16.338;2022-10-13T12:37:42;100236.00;;;19.47;50.86
26859;BME280;14429;48.346;16.338;2022-10-13T12:40:12;100242.13;;;19.49;50.92
26859;BME280;14429;48.346;16.338;2022-10-13T12:42:38;100242.97;;;19.49;50.84
26859;BME280;14429;48.346;16.338;2022-10-13T12:45:05;100236.72;;;19.49;50.79
26859;BME280;14429;48.346;16.338;2022-10-13T12:47:44;100236.44;;;19.52;50.72
26859;BME280;14429;48.346;16.338;2022-10-13T12:50:34;100240.56;;;19.56;50.73
26859;BME280;14429;48.346;16.338;2022-10-13T12:53:10;100234.69;;;19.51;50.78
26859;BME280;14429;48.346;16.338;2022-10-13T12:55:49;100235.25;;;19.54;50.68
26859;BME280;14429;48.346;16.338;2022-10-13T12:58:19;100236.78;;;19.21;51.34
26859;BME280;14429;48.346;16.338;2022-10-13T13:00:54;100243.63;;;18.69;53.09
26859;BME280;14429;48.346;16.338;2022-10-13T13:03:23;100232.56;;;18.63;53.42
26859;BME280;14429;48.346;16.338;2022-10-13T13:06:06;100230.03;;;18.89;52.84